KDAW

Details ICAO KDAW
Name SKYHAVEN
Region United States
Timezone America/New_York (UTC-4.0)
Plans Departing 6
Arriving 3
Stats Elevation 322 ft / 98 m (AMSL)
Location 43.284061° -70.929255°
Runways 1
Magnetic Variation 14.919° W
Sunrise 2018-05-25 09:12:11 UTC / 2018-05-25 05:12:11 Local
Sunset 2018-05-26 00:12:02 UTC / 2018-05-25 20:12:02 Local
Advertisement - Login to hide

Runways

ID Width Length Bearing (true) Bearing (mag) Surface Threshold Offset Overrun Length
15 100 ft / 30 m 3,996 ft / 1,218 m 130.95° 145.87° Asphalt 0 ft / 0 m 0 ft / 0 m
33 100 ft / 30 m 3,996 ft / 1,218 m 310.96° 325.88° Asphalt 0 ft / 0 m 0 ft / 0 m

Map

Weather


0- 5 10 15 20 25 30 35+ Temperature / ° C

Clouds and Precipitation
Forecast for 2018-05-25 12:00 UTC. Updated 2 hours ago

Ground ~20,000 ft ~40,000 ft Winds

METAR

KDAW 251251Z AUTO VRB04KT 10SM CLR 22/11 A2986 RMK AO2 SLP108 T02170106

TAF

Not found

Frequencies

Recorded 135.27 MHz ASOS
Approach 125.05 MHz BOSTON APP/DEP
Unicom 122.70 MHz CTAF/UNICOM
Approach 128.20 MHz BOSTON APP/DEP
Warning: Do not use this data for real-world aviation or navigation. No guarantee of current accuracy is given.